Terminal Aerodrome Forecast
Issued by NWS

Home | Current Version | Previous Version | Text Only | Print | Product List | Glossary Off
Versions: 1 2 3 4 5 6 7 8 9 10 11 12 13 14 15 16 17

000
FTUS43 KGRB 051700
TAFATW
TAF
KATW 051725Z 0518/0618 09009KT P6SM SCT070 BKN120
     FM060000 09006KT P6SM SCT040 OVC070
     FM060400 07005KT P6SM SCT020 OVC035
     FM060900 07005KT 5SM BR BKN012 OVC020 PROB30 0609/0615 4SM
      -SHRA BR
     FM061500 13006KT P6SM SCT020 BKN035=

USA.gov is the U.S. government's official web portal to all federal, state and local government web resources and services.